Time;durP1;ratioP1;P1;durP2;ratioP2;P2;SDS_P1;SDS_P2;PMS_P1;PMS_P2;Temp;Humidity;BMP_temperature;BMP_pressure;BME280_temperature;BME280_humidity;BME280_pressure;Samples;Min_cycle;Max_cycle;Signal;HPM_P1;HPM_P2
2023/04/15 00:01:32;;;;;;;;;;;18.30;53.80;;;;;;6148473;29;19919;-69
2023/04/15 00:04:33;;;;;;;;;;;18.40;53.90;;;;;;6129731;29;20401;-69
2023/04/15 00:07:34;;;;;;;;;;;18.30;53.90;;;;;;6150667;29;19910;-69
2023/04/15 00:10:35;;;;;;;;;;;18.30;53.80;;;;;;6150528;29;19918;-69
2023/04/15 00:13:35;;;;;;;;;;;18.30;53.90;;;;;;6125176;29;19914;-71
2023/04/15 00:16:36;;;;;;;;;;;18.40;53.90;;;;;;6126435;29;19911;-71
2023/04/15 00:19:37;;;;;;;;;;;18.30;53.80;;;;;;6126460;29;20013;-71
2023/04/15 00:22:37;;;;;;;;;;;18.40;53.90;;;;;;6125464;29;19917;-69
2023/04/15 00:25:38;;;;;;;;;;;18.40;53.80;;;;;;6124675;29;19914;-69
2023/04/15 00:28:39;;;;;;;;;;;18.30;53.90;;;;;;6132790;29;19915;-69
2023/04/15 00:31:41;;;;;;;;;;;18.40;53.90;;;;;;6132549;29;20448;-68
2023/04/15 00:34:41;;;;;;;;;;;18.40;53.80;;;;;;6144668;29;19915;-68
2023/04/15 00:37:42;;;;;;;;;;;18.40;53.90;;;;;;6147649;29;20026;-68
2023/04/15 00:40:43;;;;;;;;;;;18.40;53.90;;;;;;6150159;29;20041;-68
2023/04/15 00:43:43;;;;;;;;;;;18.40;53.90;;;;;;6142406;28;19917;-69
2023/04/15 00:46:44;;;;;;;;;;;18.40;54.00;;;;;;6149089;29;19910;-69
2023/04/15 00:49:45;;;;;;;;;;;18.30;53.90;;;;;;6149758;29;20005;-68
2023/04/15 00:52:45;;;;;;;;;;;18.40;54.00;;;;;;6149482;29;20333;-69
2023/04/15 00:55:46;;;;;;;;;;;18.30;53.90;;;;;;6131869;29;19910;-69
2023/04/15 00:58:47;;;;;;;;;;;18.40;54.00;;;;;;6132057;29;20013;-69
2023/04/15 01:01:47;;;;;;;;;;;18.30;53.80;;;;;;6149060;29;19969;-68
2023/04/15 01:04:48;;;;;;;;;;;18.40;53.90;;;;;;6148777;29;20370;-69
2023/04/15 01:07:49;;;;;;;;;;;18.40;53.90;;;;;;6149216;29;20009;-69
2023/04/15 01:10:49;;;;;;;;;;;18.30;53.90;;;;;;6149461;29;19953;-69
2023/04/15 01:13:51;;;;;;;;;;;18.40;53.90;;;;;;6145783;28;19914;-69
2023/04/15 01:16:52;;;;;;;;;;;18.40;53.80;;;;;;6131468;29;19911;-69
2023/04/15 01:19:54;;;;;;;;;;;18.30;53.80;;;;;;6148587;29;19914;-69
2023/04/15 01:22:55;;;;;;;;;;;18.40;53.90;;;;;;6148826;29;19911;-68
2023/04/15 01:25:57;;;;;;;;;;;18.40;54.00;;;;;;6148495;28;19914;-68
2023/04/15 01:28:57;;;;;;;;;;;18.30;53.80;;;;;;6148668;29;19964;-68
2023/04/15 01:31:59;;;;;;;;;;;18.30;53.90;;;;;;6148680;29;19914;-70
2023/04/15 01:34:59;;;;;;;;;;;18.40;53.90;;;;;;6142531;29;20413;-71
2023/04/15 01:38:03;;;;;;;;;;;18.30;53.90;;;;;;6148361;29;19911;-71
2023/04/15 01:41:06;;;;;;;;;;;18.30;54.00;;;;;;6148347;29;19915;-71
2023/04/15 01:44:07;;;;;;;;;;;18.30;53.90;;;;;;6147538;28;20399;-68
2023/04/15 01:47:07;;;;;;;;;;;18.30;53.90;;;;;;6148077;29;19921;-69
2023/04/15 01:50:08;;;;;;;;;;;18.30;54.00;;;;;;6148404;29;19914;-68
2023/04/15 01:53:09;;;;;;;;;;;18.40;54.10;;;;;;6148090;29;19918;-71
2023/04/15 01:56:10;;;;;;;;;;;18.30;54.00;;;;;;6147213;28;19910;-68
2023/04/15 01:59:11;;;;;;;;;;;18.30;53.90;;;;;;6130519;29;19945;-69
2023/04/15 02:02:11;;;;;;;;;;;18.30;54.00;;;;;;6130691;29;20460;-69
2023/04/15 02:05:12;;;;;;;;;;;18.30;53.90;;;;;;6130223;29;20286;-69
2023/04/15 02:08:13;;;;;;;;;;;18.40;54.10;;;;;;6130849;29;19926;-69
2023/04/15 02:11:14;;;;;;;;;;;18.30;54.00;;;;;;6148001;29;19968;-68
2023/04/15 02:14:15;;;;;;;;;;;18.30;54.00;;;;;;6130151;29;20341;-69
2023/04/15 02:17:16;;;;;;;;;;;18.30;54.00;;;;;;6147860;29;20001;-69
2023/04/15 02:20:19;;;;;;;;;;;18.30;53.90;;;;;;6145268;29;19910;-69
2023/04/15 02:23:20;;;;;;;;;;;18.30;53.80;;;;;;6147917;29;20018;-69
2023/04/15 02:26:24;;;;;;;;;;;18.40;53.90;;;;;;6125034;29;19918;-69
2023/04/15 02:29:25;;;;;;;;;;;18.30;53.90;;;;;;6160982;28;19938;-69
2023/04/15 02:32:25;;;;;;;;;;;18.30;53.90;;;;;;6147259;29;19957;-69
2023/04/15 02:35:26;;;;;;;;;;;18.30;53.90;;;;;;6122173;29;19936;-69
2023/04/15 02:38:27;;;;;;;;;;;18.30;53.90;;;;;;6123722;29;19911;-69
2023/04/15 02:41:28;;;;;;;;;;;18.30;53.90;;;;;;6142536;29;20378;-69
2023/04/15 02:44:30;;;;;;;;;;;18.30;53.90;;;;;;6145918;28;19915;-69
2023/04/15 02:47:30;;;;;;;;;;;18.30;53.90;;;;;;6129938;29;20409;-68
2023/04/15 02:50:31;;;;;;;;;;;18.30;53.90;;;;;;6129883;29;20031;-68
2023/04/15 02:53:32;;;;;;;;;;;18.40;54.00;;;;;;6129691;29;19966;-68
2023/04/15 02:56:32;;;;;;;;;;;18.40;54.00;;;;;;6147454;28;19918;-69
2023/04/15 02:59:33;;;;;;;;;;;18.40;54.00;;;;;;6146514;29;19910;-69
2023/04/15 03:02:34;;;;;;;;;;;18.30;54.00;;;;;;6147079;29;20630;-69
2023/04/15 03:05:38;;;;;;;;;;;18.30;54.00;;;;;;6129446;29;19911;-68
2023/04/15 03:08:38;;;;;;;;;;;18.30;53.90;;;;;;6148464;28;19914;-68
2023/04/15 03:11:40;;;;;;;;;;;18.40;54.00;;;;;;6134871;29;20288;-69
2023/04/15 03:14:41;;;;;;;;;;;18.30;53.90;;;;;;6149860;29;19922;-68
2023/04/15 03:17:41;;;;;;;;;;;18.30;53.90;;;;;;6149559;29;19911;-68
2023/04/15 03:20:42;;;;;;;;;;;18.40;54.10;;;;;;6134095;29;19977;-68
2023/04/15 03:23:43;;;;;;;;;;;18.40;54.00;;;;;;6134368;28;19957;-68
2023/04/15 03:26:43;;;;;;;;;;;18.30;53.90;;;;;;6151197;29;20462;-69
2023/04/15 03:29:44;;;;;;;;;;;18.40;54.10;;;;;;6134342;29;19938;-69
2023/04/15 03:32:45;;;;;;;;;;;18.40;53.90;;;;;;6166124;28;19914;-68
2023/04/15 03:35:45;;;;;;;;;;;18.40;54.10;;;;;;6145428;29;19922;-68
2023/04/15 03:38:46;;;;;;;;;;;18.40;54.00;;;;;;6149690;29;20352;-69
2023/04/15 03:41:46;;;;;;;;;;;18.40;53.90;;;;;;6125865;29;19961;-69
2023/04/15 03:44:47;;;;;;;;;;;18.30;53.80;;;;;;6127068;29;20006;-69
2023/04/15 03:47:48;;;;;;;;;;;18.30;53.90;;;;;;6134019;29;19917;-69
2023/04/15 03:50:49;;;;;;;;;;;18.30;53.90;;;;;;6150668;29;20621;-69
2023/04/15 03:53:50;;;;;;;;;;;18.30;53.90;;;;;;6133024;28;19918;-69
2023/04/15 03:56:50;;;;;;;;;;;18.30;54.00;;;;;;6150849;29;19910;-69
2023/04/15 03:59:51;;;;;;;;;;;18.40;54.00;;;;;;6150596;29;19950;-70
2023/04/15 04:02:51;;;;;;;;;;;18.40;54.00;;;;;;6133133;29;19922;-72
2023/04/15 04:05:52;;;;;;;;;;;18.30;53.90;;;;;;6150613;28;20001;-72
2023/04/15 04:08:52;;;;;;;;;;;18.40;54.00;;;;;;6133416;29;20373;-70
2023/04/15 04:11:53;;;;;;;;;;;18.30;53.90;;;;;;6159066;28;19910;-71
2023/04/15 04:14:55;;;;;;;;;;;18.40;54.00;;;;;;6149563;28;20527;-70
2023/04/15 04:17:56;;;;;;;;;;;18.30;53.90;;;;;;6133210;29;19911;-70
2023/04/15 04:20:57;;;;;;;;;;;18.30;53.90;;;;;;6149945;28;19911;-69
2023/04/15 04:23:57;;;;;;;;;;;18.30;53.90;;;;;;6150602;29;19918;-68
2023/04/15 04:26:58;;;;;;;;;;;18.30;53.90;;;;;;6148064;29;19921;-68
2023/04/15 04:29:58;;;;;;;;;;;18.40;54.00;;;;;;6149971;29;20437;-68
2023/04/15 04:32:59;;;;;;;;;;;18.40;54.00;;;;;;6149483;29;19922;-68
2023/04/15 04:36:00;;;;;;;;;;;18.40;54.00;;;;;;6149163;28;19914;-68
2023/04/15 04:39:01;;;;;;;;;;;18.30;53.90;;;;;;6132624;29;20448;-68
2023/04/15 04:42:02;;;;;;;;;;;18.30;53.90;;;;;;6150115;29;20408;-70
2023/04/15 04:45:03;;;;;;;;;;;18.30;53.90;;;;;;6149534;29;19910;-68
2023/04/15 04:48:05;;;;;;;;;;;18.40;54.00;;;;;;6142609;29;19915;-68
2023/04/15 04:51:07;;;;;;;;;;;18.30;54.00;;;;;;6132826;29;19911;-68
2023/04/15 04:54:07;;;;;;;;;;;18.40;54.00;;;;;;6149215;29;19957;-68
2023/04/15 04:57:08;;;;;;;;;;;18.40;54.10;;;;;;6149364;29;20392;-68
2023/04/15 05:00:39;;;;;;;;;;;18.40;54.00;;;;;;6149123;29;19918;-68
2023/04/15 05:03:40;;;;;;;;;;;18.40;54.00;;;;;;6143270;29;19974;-68
2023/04/15 05:06:41;;;;;;;;;;;18.30;53.90;;;;;;6148777;29;19914;-68
2023/04/15 05:09:41;;;;;;;;;;;18.30;53.90;;;;;;6149483;29;19911;-68
2023/04/15 05:12:42;;;;;;;;;;;18.30;53.90;;;;;;6163619;28;19953;-68
2023/04/15 05:15:43;;;;;;;;;;;18.30;53.90;;;;;;6131463;29;19914;-68
2023/04/15 05:18:44;;;;;;;;;;;18.30;53.90;;;;;;6146615;29;19910;-68
2023/04/15 05:21:44;;;;;;;;;;;18.30;53.90;;;;;;6131368;29;19911;-68
2023/04/15 05:24:45;;;;;;;;;;;18.30;53.90;;;;;;6147044;29;19911;-68
2023/04/15 05:27:46;;;;;;;;;;;18.30;53.80;;;;;;6163319;28;19914;-68
2023/04/15 05:30:46;;;;;;;;;;;18.30;53.90;;;;;;6136155;29;19974;-68
2023/04/15 05:33:47;;;;;;;;;;;18.30;53.90;;;;;;6146336;29;19915;-68
2023/04/15 05:36:47;;;;;;;;;;;18.30;53.90;;;;;;6144393;28;20414;-68
2023/04/15 05:39:48;;;;;;;;;;;18.30;53.90;;;;;;6148001;29;19961;-67
2023/04/15 05:42:49;;;;;;;;;;;18.30;53.90;;;;;;6147406;29;19921;-68
2023/04/15 05:45:49;;;;;;;;;;;18.30;53.90;;;;;;6147824;29;19918;-68
2023/04/15 05:48:51;;;;;;;;;;;18.30;53.90;;;;;;6140732;29;20378;-70
2023/04/15 05:51:51;;;;;;;;;;;18.30;53.90;;;;;;6147943;29;19916;-70
2023/04/15 05:54:52;;;;;;;;;;;18.40;54.00;;;;;;6147475;29;20153;-70
2023/04/15 05:57:52;;;;;;;;;;;18.40;54.00;;;;;;6130250;29;19917;-70
2023/04/15 06:00:53;;;;;;;;;;;18.30;53.90;;;;;;6148061;29;19966;-70
2023/04/15 06:03:54;;;;;;;;;;;18.30;53.90;;;;;;6130354;29;19922;-70
2023/04/15 06:06:55;;;;;;;;;;;18.30;53.90;;;;;;6162264;28;19922;-70
2023/04/15 06:09:56;;;;;;;;;;;18.30;53.90;;;;;;6143461;29;19910;-67
2023/04/15 06:12:56;;;;;;;;;;;18.30;53.90;;;;;;6147669;29;19914;-70
2023/04/15 06:15:57;;;;;;;;;;;18.30;53.90;;;;;;6147283;29;19910;-70
2023/04/15 06:18:57;;;;;;;;;;;18.30;53.90;;;;;;6162183;28;19919;-70
2023/04/15 06:21:59;;;;;;;;;;;18.40;54.00;;;;;;6130219;29;19918;-70
2023/04/15 06:25:00;;;;;;;;;;;18.30;53.90;;;;;;6143334;28;20050;-70
2023/04/15 06:28:00;;;;;;;;;;;18.30;53.90;;;;;;6129986;29;19911;-70
2023/04/15 06:31:01;;;;;;;;;;;18.30;53.90;;;;;;6137958;29;19996;-70
2023/04/15 06:34:01;;;;;;;;;;;18.40;54.00;;;;;;6106103;29;19957;-70
2023/04/15 06:37:03;;;;;;;;;;;18.30;53.90;;;;;;6139468;29;19914;-70
2023/04/15 06:40:04;;;;;;;;;;;18.30;53.90;;;;;;6146899;29;19921;-70
2023/04/15 06:43:05;;;;;;;;;;;18.30;53.90;;;;;;6139566;28;19915;-71
2023/04/15 06:46:05;;;;;;;;;;;18.30;53.90;;;;;;6129648;29;19918;-70
2023/04/15 06:49:06;;;;;;;;;;;18.40;54.00;;;;;;6129878;29;20365;-70
2023/04/15 06:52:07;;;;;;;;;;;18.40;54.00;;;;;;6147159;29;19969;-70
2023/04/15 06:55:08;;;;;;;;;;;18.30;53.90;;;;;;6129813;29;19914;-70
2023/04/15 06:58:09;;;;;;;;;;;18.30;53.90;;;;;;6146831;29;20296;-70
2023/04/15 07:01:10;;;;;;;;;;;18.30;53.90;;;;;;6146626;29;19954;-71
2023/04/15 07:04:11;;;;;;;;;;;18.30;53.90;;;;;;6140984;29;19962;-70
2023/04/15 07:07:12;;;;;;;;;;;18.40;54.00;;;;;;6129438;29;20239;-70
2023/04/15 07:10:14;;;;;;;;;;;18.30;53.90;;;;;;6142768;29;19910;-70
2023/04/15 07:13:15;;;;;;;;;;;18.30;53.90;;;;;;6129371;29;19918;-70
2023/04/15 07:16:16;;;;;;;;;;;18.40;54.00;;;;;;6146587;29;19966;-70
2023/04/15 07:19:16;;;;;;;;;;;18.30;53.90;;;;;;6129619;29;19910;-70
2023/04/15 07:22:17;;;;;;;;;;;18.30;53.90;;;;;;6161475;28;19938;-70
2023/04/15 07:25:18;;;;;;;;;;;18.30;53.90;;;;;;6145404;28;19953;-70
2023/04/15 07:28:18;;;;;;;;;;;18.40;54.00;;;;;;6145192;29;19974;-70
2023/04/15 07:31:19;;;;;;;;;;;18.30;53.90;;;;;;6129195;29;19918;-70
2023/04/15 07:34:19;;;;;;;;;;;18.30;53.90;;;;;;6128497;28;19945;-70
2023/04/15 07:37:20;;;;;;;;;;;18.30;53.90;;;;;;6141562;29;19934;-70
2023/04/15 07:40:21;;;;;;;;;;;18.30;53.90;;;;;;6146419;29;20409;-70
2023/04/15 07:43:21;;;;;;;;;;;18.40;54.00;;;;;;6129537;29;19915;-67
2023/04/15 07:46:23;;;;;;;;;;;18.40;54.00;;;;;;6146223;28;19914;-67
2023/04/15 07:49:24;;;;;;;;;;;18.40;54.00;;;;;;6122985;29;19910;-70
2023/04/15 07:52:24;;;;;;;;;;;18.30;53.90;;;;;;6124938;29;20386;-70
2023/04/15 07:55:25;;;;;;;;;;;18.40;54.00;;;;;;6148392;28;20022;-70
2023/04/15 07:58:26;;;;;;;;;;;18.30;53.90;;;;;;6150632;29;19956;-70
2023/04/15 08:01:28;;;;;;;;;;;18.40;54.70;;;;;;6165037;28;20002;-70
2023/04/15 08:08:07;;;;;;;;;;;18.40;54.00;;;;;;6143582;29;20297;-70
2023/04/15 08:11:08;;;;;;;;;;;18.40;53.90;;;;;;6149975;29;19918;-70
2023/04/15 08:14:09;;;;;;;;;;;18.30;53.90;;;;;;6149797;29;19922;-71
2023/04/15 08:17:10;;;;;;;;;;;18.40;54.00;;;;;;6146558;29;19918;-70
2023/04/15 08:20:12;;;;;;;;;;;18.30;53.80;;;;;;6132515;29;19918;-70
2023/04/15 08:23:13;;;;;;;;;;;18.30;53.90;;;;;;6149809;29;19914;-70
2023/04/15 08:26:16;;;;;;;;;;;18.30;53.90;;;;;;6150155;29;19965;-70
2023/04/15 08:29:17;;;;;;;;;;;18.40;54.00;;;;;;6149397;29;20402;-70
2023/04/15 08:32:19;;;;;;;;;;;18.30;53.90;;;;;;6148396;29;19910;-70
2023/04/15 08:35:21;;;;;;;;;;;18.30;53.90;;;;;;6149548;28;20365;-70
2023/04/15 08:38:22;;;;;;;;;;;18.30;53.90;;;;;;6148439;29;19914;-70
2023/04/15 08:41:24;;;;;;;;;;;18.40;54.00;;;;;;6149197;29;20177;-70
2023/04/15 08:44:25;;;;;;;;;;;18.30;53.90;;;;;;6149137;28;19990;-70
2023/04/15 08:47:30;;;;;;;;;;;18.30;53.90;;;;;;6127687;29;19910;-70
2023/04/15 08:50:32;;;;;;;;;;;18.40;54.00;;;;;;6146587;29;20294;-70
2023/04/15 08:53:34;;;;;;;;;;;18.30;53.90;;;;;;6140953;29;19985;-70
2023/04/15 08:56:35;;;;;;;;;;;18.30;53.90;;;;;;6149321;28;19910;-70
2023/04/15 08:59:37;;;;;;;;;;;18.40;54.00;;;;;;6149429;29;19914;-70
2023/04/15 09:06:17;;;;;;;;;;;18.30;53.90;;;;;;6125348;29;19946;-70
2023/04/15 09:09:20;;;;;;;;;;;18.30;53.90;;;;;;6108524;29;19989;-70
2023/04/15 09:12:22;;;;;;;;;;;18.30;53.80;;;;;;6135854;29;19950;-70
2023/04/15 09:15:28;;;;;;;;;;;18.30;53.80;;;;;;6148450;29;19919;-70
2023/04/15 09:18:36;;;;;;;;;;;18.30;53.70;;;;;;6145016;29;20030;-70
2023/04/15 09:21:43;;;;;;;;;;;18.40;53.80;;;;;;6148587;29;19918;-70
2023/04/15 09:24:44;;;;;;;;;;;18.40;53.80;;;;;;6148451;28;20413;-70
2023/04/15 09:27:49;;;;;;;;;;;18.40;53.90;;;;;;6131466;29;20324;-70
2023/04/15 09:31:00;;;;;;;;;;;18.40;53.80;;;;;;6148308;29;19915;-70
2023/04/15 09:34:02;;;;;;;;;;;18.40;53.90;;;;;;6148417;29;19914;-70
2023/04/15 09:37:04;;;;;;;;;;;18.40;53.90;;;;;;6142893;29;20029;-70
2023/04/15 09:40:07;;;;;;;;;;;18.40;53.90;;;;;;6148465;29;19917;-70
2023/04/15 09:43:12;;;;;;;;;;;18.40;53.90;;;;;;6123381;29;20397;-70
2023/04/15 09:46:16;;;;;;;;;;;18.40;53.90;;;;;;6116184;29;19918;-71
2023/04/15 09:49:19;;;;;;;;;;;18.40;53.90;;;;;;6143019;28;19910;-71
2023/04/15 09:52:21;;;;;;;;;;;18.40;53.90;;;;;;6137471;29;19914;-71
2023/04/15 09:55:23;;;;;;;;;;;18.40;53.90;;;;;;6146016;29;20128;-71
2023/04/15 09:58:29;;;;;;;;;;;18.40;53.90;;;;;;6140536;29;19914;-71
2023/04/15 10:01:30;;;;;;;;;;;18.40;53.90;;;;;;6143815;29;19949;-71
2023/04/15 10:04:34;;;;;;;;;;;18.40;53.90;;;;;;6142630;28;19920;-72
2023/04/15 10:07:34;;;;;;;;;;;18.40;53.90;;;;;;6140150;29;19917;-72
2023/04/15 10:10:35;;;;;;;;;;;18.40;53.90;;;;;;6147184;29;19910;-72
2023/04/15 10:13:37;;;;;;;;;;;18.40;53.90;;;;;;6135798;29;19915;-74
2023/04/15 10:16:38;;;;;;;;;;;18.40;54.00;;;;;;6129620;28;19911;-74
2023/04/15 10:19:39;;;;;;;;;;;18.40;53.90;;;;;;6145945;29;20686;-73
2023/04/15 10:22:40;;;;;;;;;;;18.40;53.90;;;;;;6143817;29;19910;-74
2023/04/15 10:25:41;;;;;;;;;;;18.40;53.90;;;;;;6145862;29;19917;-74
2023/04/15 10:28:42;;;;;;;;;;;18.40;54.00;;;;;;6143718;29;19915;-74
2023/04/15 10:31:43;;;;;;;;;;;18.40;54.00;;;;;;6131005;29;20303;-73
2023/04/15 10:34:44;;;;;;;;;;;18.40;54.00;;;;;;6132312;29;20660;-75
2023/04/15 10:37:45;;;;;;;;;;;18.40;54.00;;;;;;6144467;29;20009;-73
2023/04/15 10:40:46;;;;;;;;;;;18.40;54.00;;;;;;6145460;28;19914;-73
2023/04/15 10:43:47;;;;;;;;;;;18.40;54.00;;;;;;6138065;28;20433;-73
2023/04/15 10:46:50;;;;;;;;;;;18.40;54.00;;;;;;6146668;29;19958;-73
2023/04/15 10:49:55;;;;;;;;;;;18.40;54.00;;;;;;6145212;29;19918;-73
2023/04/15 10:52:56;;;;;;;;;;;18.40;54.00;;;;;;6145540;29;19915;-73
2023/04/15 10:55:58;;;;;;;;;;;18.40;54.00;;;;;;6146101;29;19966;-73
2023/04/15 10:59:00;;;;;;;;;;;18.40;54.00;;;;;;6146543;29;19916;-73
2023/04/15 11:02:02;;;;;;;;;;;18.40;54.10;;;;;;6146299;28;20316;-73
2023/04/15 11:05:02;;;;;;;;;;;18.40;54.10;;;;;;6144475;29;19946;-73
2023/04/15 11:08:03;;;;;;;;;;;18.40;54.10;;;;;;6141470;29;20001;-74
2023/04/15 11:11:04;;;;;;;;;;;18.40;54.10;;;;;;6145117;29;20057;-73
2023/04/15 11:14:04;;;;;;;;;;;18.40;54.10;;;;;;6139105;29;20065;-74
2023/04/15 11:17:05;;;;;;;;;;;18.40;54.10;;;;;;6146378;29;20321;-74
2023/04/15 11:20:08;;;;;;;;;;;18.40;54.10;;;;;;6128883;29;19911;-73
2023/04/15 11:23:09;;;;;;;;;;;18.40;54.10;;;;;;6144656;29;20009;-74
2023/04/15 11:26:10;;;;;;;;;;;18.40;54.20;;;;;;6144551;29;19921;-73
2023/04/15 11:29:16;;;;;;;;;;;18.40;54.10;;;;;;6146102;29;19958;-72
2023/04/15 11:32:17;;;;;;;;;;;18.40;54.20;;;;;;6150765;29;19911;-73
2023/04/15 11:35:17;;;;;;;;;;;18.40;54.10;;;;;;6145466;29;19911;-73
2023/04/15 11:38:18;;;;;;;;;;;18.40;54.20;;;;;;6150336;29;19914;-73
2023/04/15 11:41:20;;;;;;;;;;;18.40;54.20;;;;;;6148487;29;19914;-73
2023/04/15 11:44:20;;;;;;;;;;;18.40;54.20;;;;;;6141709;29;19921;-73
2023/04/15 11:47:24;;;;;;;;;;;18.40;54.20;;;;;;6132608;29;19915;-73
2023/04/15 11:50:25;;;;;;;;;;;18.40;54.20;;;;;;6147559;29;19911;-74
2023/04/15 11:53:55;;;;;;;;;;;18.40;54.20;;;;;;6147340;29;19972;-75
2023/04/15 11:56:56;;;;;;;;;;;18.40;54.20;;;;;;6136129;29;19914;-73
2023/04/15 11:59:56;;;;;;;;;;;18.40;54.90;;;;;;6130612;29;19917;-74
2023/04/15 12:03:17;;;;;;;;;;;18.40;54.20;;;;;;6140887;29;19923;-73
2023/04/15 12:06:19;;;;;;;;;;;18.40;54.30;;;;;;6143748;29;19934;-74
2023/04/15 12:09:20;;;;;;;;;;;18.40;54.30;;;;;;6149617;29;19921;-73
2023/04/15 12:12:22;;;;;;;;;;;18.40;54.30;;;;;;6149511;29;20282;-74
2023/04/15 12:15:23;;;;;;;;;;;18.40;54.30;;;;;;6148993;28;20014;-74
2023/04/15 12:18:24;;;;;;;;;;;18.40;54.50;;;;;;6149516;29;19941;-74
2023/04/15 12:21:25;;;;;;;;;;;18.40;54.30;;;;;;6133728;29;20009;-73
2023/04/15 12:24:26;;;;;;;;;;;18.50;54.40;;;;;;6137498;29;19961;-74
2023/04/15 12:27:27;;;;;;;;;;;18.50;54.30;;;;;;6149392;29;20424;-73
2023/04/15 12:30:28;;;;;;;;;;;18.50;54.30;;;;;;6147385;29;19915;-71
2023/04/15 12:33:32;;;;;;;;;;;18.50;54.40;;;;;;6148214;29;20108;-71
2023/04/15 12:36:35;;;;;;;;;;;18.50;54.40;;;;;;6143232;29;20293;-71
2023/04/15 12:39:37;;;;;;;;;;;18.50;54.30;;;;;;6149214;28;20428;-72
2023/04/15 12:42:38;;;;;;;;;;;18.50;54.30;;;;;;6148331;29;19917;-71
2023/04/15 12:45:38;;;;;;;;;;;18.50;54.40;;;;;;6136668;29;19919;-72
2023/04/15 12:48:39;;;;;;;;;;;18.50;54.40;;;;;;6148725;29;20292;-71
2023/04/15 12:51:40;;;;;;;;;;;18.50;54.40;;;;;;6137276;29;19910;-71
2023/04/15 12:54:40;;;;;;;;;;;18.50;54.40;;;;;;6148256;28;19965;-71
2023/04/15 12:57:41;;;;;;;;;;;18.50;54.40;;;;;;6147220;29;20605;-71
2023/04/15 13:00:41;;;;;;;;;;;18.50;54.40;;;;;;6146597;29;19910;-71
2023/04/15 13:03:42;;;;;;;;;;;18.40;54.40;;;;;;6147909;28;20097;-71
2023/04/15 13:06:42;;;;;;;;;;;18.50;54.50;;;;;;6148148;29;20018;-71
2023/04/15 13:09:43;;;;;;;;;;;18.50;54.40;;;;;;6148399;29;20006;-71
2023/04/15 13:12:45;;;;;;;;;;;18.50;54.40;;;;;;6147948;29;19989;-71
2023/04/15 13:15:46;;;;;;;;;;;18.50;54.40;;;;;;6120723;29;19911;-71
2023/04/15 13:18:47;;;;;;;;;;;18.50;54.50;;;;;;6146095;29;19950;-71
2023/04/15 13:21:48;;;;;;;;;;;18.50;54.50;;;;;;6144597;29;19961;-71
2023/04/15 13:24:48;;;;;;;;;;;18.50;54.50;;;;;;6146157;29;20285;-72
2023/04/15 13:27:49;;;;;;;;;;;18.40;54.40;;;;;;6129005;29;19966;-71
2023/04/15 13:30:49;;;;;;;;;;;18.50;54.50;;;;;;6129830;29;19918;-72
2023/04/15 13:33:51;;;;;;;;;;;18.50;54.50;;;;;;6147521;29;19914;-72
2023/04/15 13:36:52;;;;;;;;;;;18.50;54.50;;;;;;6142474;29;19957;-72
2023/04/15 13:39:52;;;;;;;;;;;18.50;54.50;;;;;;6147202;29;19911;-72
2023/04/15 13:42:53;;;;;;;;;;;18.50;54.50;;;;;;6116787;29;19925;-71
2023/04/15 13:45:54;;;;;;;;;;;18.50;54.70;;;;;;6123249;29;19911;-71
2023/04/15 13:48:54;;;;;;;;;;;18.50;54.50;;;;;;6149256;29;19933;-70
2023/04/15 13:51:55;;;;;;;;;;;18.50;54.60;;;;;;6147298;28;20404;-71
2023/04/15 13:54:56;;;;;;;;;;;18.40;54.80;;;;;;6130654;29;20002;-71
2023/04/15 13:57:56;;;;;;;;;;;18.40;55.10;;;;;;6122305;29;19919;-70
2023/04/15 14:00:57;;;;;;;;;;;18.30;55.20;;;;;;6144079;29;20346;-71
2023/04/15 14:03:57;;;;;;;;;;;18.30;55.40;;;;;;6146864;28;19929;-71
2023/04/15 14:06:58;;;;;;;;;;;18.40;55.70;;;;;;6143833;29;19911;-71
2023/04/15 14:09:59;;;;;;;;;;;18.30;55.70;;;;;;6146895;29;19921;-72
2023/04/15 14:12:59;;;;;;;;;;;18.30;56.20;;;;;;6142207;29;20317;-71
2023/04/15 14:16:00;;;;;;;;;;;18.40;56.90;;;;;;6145677;29;19946;-71
2023/04/15 14:19:01;;;;;;;;;;;18.40;56.40;;;;;;6146603;29;20021;-70
2023/04/15 14:22:02;;;;;;;;;;;18.40;57.10;;;;;;6129302;29;19969;-72
2023/04/15 14:25:03;;;;;;;;;;;18.40;56.30;;;;;;6128504;29;20029;-71
2023/04/15 14:28:04;;;;;;;;;;;18.40;56.50;;;;;;6121703;29;19939;-71
2023/04/15 14:31:05;;;;;;;;;;;18.40;56.50;;;;;;6144476;29;19914;-71
2023/04/15 14:34:06;;;;;;;;;;;18.40;56.60;;;;;;6145429;29;20300;-69
2023/04/15 14:37:06;;;;;;;;;;;18.30;56.50;;;;;;6140370;29;19914;-71
2023/04/15 14:40:07;;;;;;;;;;;18.30;56.50;;;;;;6145685;29;20013;-71
2023/04/15 14:43:08;;;;;;;;;;;18.30;56.60;;;;;;6145012;29;19918;-71
2023/04/15 14:46:09;;;;;;;;;;;18.40;56.80;;;;;;6128741;29;19918;-71
2023/04/15 14:49:10;;;;;;;;;;;18.40;56.50;;;;;;6145889;29;20010;-71
2023/04/15 14:52:11;;;;;;;;;;;18.30;56.60;;;;;;6144002;29;20574;-71
2023/04/15 14:55:12;;;;;;;;;;;18.30;56.70;;;;;;6143901;29;19918;-71
2023/04/15 14:58:12;;;;;;;;;;;18.30;56.80;;;;;;6139308;29;19919;-71
2023/04/15 15:01:13;;;;;;;;;;;18.30;56.90;;;;;;6145617;29;20425;-71
2023/04/15 15:04:13;;;;;;;;;;;18.30;56.90;;;;;;6122128;29;19918;-71
2023/04/15 15:07:14;;;;;;;;;;;18.30;56.80;;;;;;6128968;29;19910;-70
2023/04/15 15:10:14;;;;;;;;;;;18.30;57.10;;;;;;6165172;28;19910;-70
2023/04/15 15:13:15;;;;;;;;;;;18.30;57.20;;;;;;6132715;29;19915;-69
2023/04/15 15:16:16;;;;;;;;;;;18.30;57.30;;;;;;6132629;29;19911;-69
2023/04/15 15:19:17;;;;;;;;;;;18.30;57.40;;;;;;6133007;29;20370;-70
2023/04/15 15:22:17;;;;;;;;;;;18.40;57.80;;;;;;6148447;29;19911;-69
2023/04/15 15:25:18;;;;;;;;;;;18.40;57.20;;;;;;6144422;29;19919;-72
2023/04/15 15:28:20;;;;;;;;;;;18.40;57.10;;;;;;6127222;29;19922;-71
2023/04/15 15:31:21;;;;;;;;;;;18.40;57.10;;;;;;6150221;29;19910;-71
2023/04/15 15:34:22;;;;;;;;;;;18.40;57.10;;;;;;6149511;28;19941;-71
2023/04/15 15:37:22;;;;;;;;;;;18.40;56.90;;;;;;6145388;29;19915;-70
2023/04/15 15:40:23;;;;;;;;;;;18.40;57.10;;;;;;6140490;29;20289;-71
2023/04/15 15:43:23;;;;;;;;;;;18.40;57.00;;;;;;6132101;29;19910;-72
2023/04/15 15:46:25;;;;;;;;;;;18.40;56.90;;;;;;6148502;29;19910;-71
2023/04/15 15:49:27;;;;;;;;;;;18.40;56.80;;;;;;6146439;29;19910;-71
2023/04/15 15:52:27;;;;;;;;;;;18.40;56.80;;;;;;6129800;29;19919;-72
2023/04/15 15:55:30;;;;;;;;;;;18.40;56.80;;;;;;6145594;28;19910;-71
2023/04/15 15:58:30;;;;;;;;;;;18.40;56.70;;;;;;6131420;29;20013;-71
2023/04/15 16:01:31;;;;;;;;;;;18.40;56.80;;;;;;6133317;28;19978;-71
2023/04/15 16:04:31;;;;;;;;;;;18.40;56.70;;;;;;6146976;29;19914;-69
2023/04/15 16:07:32;;;;;;;;;;;18.40;56.70;;;;;;6149140;29;19914;-70
2023/04/15 16:10:32;;;;;;;;;;;18.40;56.80;;;;;;6124307;29;19918;-71
2023/04/15 16:13:33;;;;;;;;;;;18.40;57.40;;;;;;6128001;29;20015;-71
2023/04/15 16:16:33;;;;;;;;;;;18.40;56.70;;;;;;6130816;29;19910;-71
2023/04/15 16:19:34;;;;;;;;;;;18.40;56.70;;;;;;6149224;29;19946;-71
2023/04/15 16:22:35;;;;;;;;;;;18.40;56.80;;;;;;6131838;29;19910;-71
2023/04/15 16:25:35;;;;;;;;;;;18.40;56.70;;;;;;6130539;29;20366;-69
2023/04/15 16:28:36;;;;;;;;;;;18.40;56.70;;;;;;6146842;29;19974;-70
2023/04/15 16:31:38;;;;;;;;;;;18.40;56.70;;;;;;6144236;29;20053;-71
2023/04/15 16:34:40;;;;;;;;;;;18.40;56.60;;;;;;6141351;29;19985;-71
2023/04/15 16:37:40;;;;;;;;;;;18.40;56.60;;;;;;6146189;29;20404;-71
2023/04/15 16:40:41;;;;;;;;;;;18.40;56.60;;;;;;6123558;28;19918;-70
2023/04/15 16:43:42;;;;;;;;;;;18.40;56.70;;;;;;6145866;29;19979;-69
2023/04/15 16:46:43;;;;;;;;;;;18.40;56.70;;;;;;6145628;29;20280;-69
2023/04/15 16:49:43;;;;;;;;;;;18.40;56.60;;;;;;6130043;29;19965;-69
2023/04/15 16:52:44;;;;;;;;;;;18.40;56.60;;;;;;6131818;29;20404;-71
2023/04/15 16:55:45;;;;;;;;;;;18.40;56.60;;;;;;6148711;29;19926;-72
2023/04/15 16:58:45;;;;;;;;;;;18.40;56.60;;;;;;6148670;29;19911;-70
2023/04/15 17:01:46;;;;;;;;;;;18.40;57.30;;;;;;6148773;29;19929;-69
2023/04/15 17:04:46;;;;;;;;;;;18.40;56.60;;;;;;6138027;29;19910;-69
2023/04/15 17:07:47;;;;;;;;;;;18.40;56.50;;;;;;6130810;29;19919;-69
2023/04/15 17:10:50;;;;;;;;;;;18.40;56.50;;;;;;6132212;29;20444;-70
2023/04/15 17:13:52;;;;;;;;;;;18.40;56.40;;;;;;6131807;28;20001;-69
2023/04/15 17:16:52;;;;;;;;;;;18.40;56.50;;;;;;6149399;29;19910;-69
2023/04/15 17:19:53;;;;;;;;;;;18.40;56.50;;;;;;6149326;29;20014;-70
2023/04/15 17:22:53;;;;;;;;;;;18.40;56.40;;;;;;6149121;29;20366;-70
2023/04/15 17:25:54;;;;;;;;;;;18.40;56.40;;;;;;6123756;29;19911;-70
2023/04/15 17:28:54;;;;;;;;;;;18.40;56.30;;;;;;6124961;29;20362;-70
2023/04/15 17:31:55;;;;;;;;;;;18.40;56.30;;;;;;6145739;29;19911;-70
2023/04/15 17:34:56;;;;;;;;;;;18.40;56.30;;;;;;6144059;29;20062;-69
2023/04/15 17:37:56;;;;;;;;;;;18.40;56.30;;;;;;6148096;29;19922;-70
2023/04/15 17:40:57;;;;;;;;;;;18.40;56.30;;;;;;6148228;29;19910;-70